createdAt,value
2023-05-14T21:00:44.687Z,11.27
2023-05-14T21:03:12.251Z,12.07
2023-05-14T21:05:41.742Z,12.25
2023-05-14T21:08:08.999Z,11.23
2023-05-14T21:10:36.296Z,12.07
2023-05-14T21:13:03.929Z,11.73
2023-05-14T21:15:31.395Z,12.10
2023-05-14T21:17:58.717Z,11.05
2023-05-14T21:20:26.147Z,11.73
2023-05-14T21:22:53.374Z,11.65
2023-05-14T21:25:20.856Z,11.15
2023-05-14T21:27:48.175Z,10.60
2023-05-14T21:30:15.795Z,10.75
2023-05-14T21:32:43.076Z,9.57
2023-05-14T21:35:10.632Z,10.70
2023-05-14T21:37:39.995Z,10.73
2023-05-14T21:40:12.662Z,10.25
2023-05-14T21:42:41.050Z,9.57
2023-05-14T21:45:08.884Z,10.10
2023-05-14T21:50:05.175Z,9.52
2023-05-14T21:52:32.595Z,9.32
2023-05-14T21:54:59.881Z,9.77
2023-05-14T21:57:28.249Z,9.48
2023-05-14T21:59:56.185Z,9.48
2023-05-14T22:02:23.623Z,9.57
2023-05-14T22:04:50.938Z,9.48
2023-05-14T22:07:18.220Z,10.07
2023-05-14T22:09:45.592Z,9.43
2023-05-14T22:12:12.888Z,9.43
2023-05-14T22:14:40.207Z,10.15
2023-05-14T22:17:07.594Z,9.05
2023-05-14T22:19:34.859Z,9.20
2023-05-14T22:22:02.148Z,7.70
2023-05-14T22:24:29.369Z,7.70
2023-05-14T22:26:56.787Z,8.18
2023-05-14T22:29:24.060Z,7.25
2023-05-14T22:31:51.459Z,6.75
2023-05-14T22:34:19.769Z,6.38
2023-05-14T22:36:47.069Z,7.53
2023-05-14T22:39:14.406Z,6.88
2023-05-14T22:41:41.674Z,6.22
2023-05-14T22:44:08.951Z,6.32
2023-05-14T22:46:36.330Z,5.53
2023-05-14T22:49:03.576Z,4.47
2023-05-14T22:51:30.953Z,4.35
2023-05-14T22:53:58.188Z,4.53
2023-05-14T22:56:25.519Z,5.10
2023-05-14T22:58:52.841Z,4.88
2023-05-14T23:01:20.184Z,5.05
2023-05-14T23:03:47.485Z,4.90
2023-05-14T23:06:15.065Z,4.50
2023-05-14T23:08:42.380Z,4.57
2023-05-14T23:11:09.740Z,4.93
2023-05-14T23:13:37.020Z,4.40
2023-05-14T23:16:05.078Z,4.10
2023-05-14T23:18:32.838Z,5.10
2023-05-14T23:21:00.219Z,5.82
2023-05-14T23:23:27.529Z,5.07
2023-05-14T23:25:56.400Z,5.28
2023-05-14T23:28:23.696Z,4.40
2023-05-14T23:30:50.968Z,4.80
2023-05-14T23:33:21.068Z,4.68
2023-05-14T23:35:48.755Z,4.45
2023-05-14T23:38:16.871Z,4.55
2023-05-14T23:40:44.117Z,4.55
2023-05-14T23:43:11.427Z,4.07
2023-05-14T23:45:39.035Z,3.65
2023-05-14T23:48:06.467Z,4.47
2023-05-14T23:50:33.822Z,4.63
2023-05-14T23:53:01.024Z,3.63
2023-05-14T23:55:28.317Z,3.22
2023-05-14T23:57:55.655Z,3.08
